Time;durP1;ratioP1;P1;durP2;ratioP2;P2;SDS_P1;SDS_P2;PMS_P1;PMS_P2;Temp;Humidity;BMP_temperature;BMP_pressure;BME280_temperature;BME280_humidity;BME280_pressure;Samples;Min_cycle;Max_cycle;Signal;HPM_P1;HPM_P2
2021/04/19 00:02:11;;;;;;;;;;;;;;;5.33;100.00;101405.31;5075124;28;19977;-71
2021/04/19 00:04:38;;;;;;;;;;;;;;;5.33;100.00;101411.59;5093618;28;19924;-72
2021/04/19 00:07:04;;;;;;;;;;;;;;;5.32;100.00;101404.44;5092872;28;19924;-72
2021/04/19 00:09:30;;;;;;;;;;;;;;;5.30;100.00;101398.25;5093279;28;19935;-72
2021/04/19 00:11:56;;;;;;;;;;;;;;;5.24;100.00;101398.56;5093497;28;19924;-72
2021/04/19 00:14:22;;;;;;;;;;;;;;;5.22;100.00;101405.84;5093208;28;19989;-72
2021/04/19 00:16:48;;;;;;;;;;;;;;;5.19;100.00;101397.91;5093085;28;20365;-72
2021/04/19 00:19:13;;;;;;;;;;;;;;;5.16;100.00;101398.94;5092998;28;20272;-72
2021/04/19 00:21:39;;;;;;;;;;;;;;;5.14;100.00;101400.81;5092850;28;19934;-72
2021/04/19 00:24:06;;;;;;;;;;;;;;;5.12;100.00;101394.66;5092926;28;19924;-71
2021/04/19 00:26:32;;;;;;;;;;;;;;;5.12;100.00;101401.84;5092568;28;19924;-72
2021/04/19 00:28:58;;;;;;;;;;;;;;;5.12;100.00;101394.66;5093054;28;20387;-73
2021/04/19 00:31:24;;;;;;;;;;;;;;;5.13;100.00;101393.69;5092918;28;19930;-72
2021/04/19 00:33:50;;;;;;;;;;;;;;;5.14;100.00;101391.88;5092774;28;19934;-71
2021/04/19 00:36:16;;;;;;;;;;;;;;;5.16;100.00;101395.38;5092571;28;19993;-72
2021/04/19 00:38:41;;;;;;;;;;;;;;;5.15;100.00;101391.78;5074802;28;20011;-72
2021/04/19 00:41:07;;;;;;;;;;;;;;;5.16;100.00;101390.00;5074466;28;19931;-72
2021/04/19 00:43:35;;;;;;;;;;;;;;;5.18;100.00;101383.59;5092625;28;19934;-72
2021/04/19 00:46:04;;;;;;;;;;;;;;;5.22;100.00;101386.13;5092439;28;19923;-72
2021/04/19 00:48:30;;;;;;;;;;;;;;;5.24;100.00;101393.19;5092697;28;19927;-71
2021/04/19 00:50:56;;;;;;;;;;;;;;;5.23;100.00;101390.56;5092430;28;20303;-71
2021/04/19 00:53:22;;;;;;;;;;;;;;;5.17;100.00;101389.03;5092501;28;20027;-72
2021/04/19 00:55:48;;;;;;;;;;;;;;;5.13;100.00;101391.00;5092182;28;19947;-71
2021/04/19 00:58:17;;;;;;;;;;;;;;;5.08;100.00;101395.75;5092736;28;20492;-72
2021/04/19 01:00:43;;;;;;;;;;;;;;;5.06;100.00;101394.91;5092200;28;19977;-71
2021/04/19 01:03:10;;;;;;;;;;;;;;;5.05;100.00;101398.59;5074032;28;19951;-72
2021/04/19 01:05:37;;;;;;;;;;;;;;;5.05;100.00;101398.59;5092275;28;20391;-71
2021/04/19 01:08:04;;;;;;;;;;;;;;;5.05;100.00;101395.00;5074250;28;19928;-72
2021/04/19 01:10:30;;;;;;;;;;;;;;;5.02;100.00;101394.22;5092317;28;19925;-72
2021/04/19 01:12:56;;;;;;;;;;;;;;;5.00;100.00;101404.16;5092181;28;19932;-72
2021/04/19 01:15:23;;;;;;;;;;;;;;;4.97;100.00;101395.34;5091614;28;19977;-71
2021/04/19 01:17:51;;;;;;;;;;;;;;;4.97;100.00;101392.66;5092322;28;20023;-71
2021/04/19 01:20:20;;;;;;;;;;;;;;;4.98;100.00;101397.09;5091970;28;19931;-72
2021/04/19 01:22:47;;;;;;;;;;;;;;;4.98;100.00;101391.72;5074151;28;19924;-71
2021/04/19 01:25:15;;;;;;;;;;;;;;;4.99;100.00;101402.41;5073586;28;19924;-72
2021/04/19 01:27:41;;;;;;;;;;;;;;;4.97;100.00;101400.75;5092179;28;19924;-71
2021/04/19 01:30:08;;;;;;;;;;;;;;;4.98;100.00;101405.19;5091965;28;19967;-71
2021/04/19 01:32:35;;;;;;;;;;;;;;;4.94;100.00;101400.88;5073238;28;19982;-72
2021/04/19 01:35:01;;;;;;;;;;;;;;;4.94;100.00;101408.97;5092028;28;20387;-72
2021/04/19 01:37:27;;;;;;;;;;;;;;;4.94;100.00;101412.50;5091468;28;19924;-72
2021/04/19 01:39:54;;;;;;;;;;;;;;;4.94;100.00;101407.13;5073663;28;19928;-72
2021/04/19 01:42:21;;;;;;;;;;;;;;;4.95;100.00;101408.88;5073516;28;19924;-72
2021/04/19 01:44:47;;;;;;;;;;;;;;;4.95;100.00;101397.25;5091569;28;19924;-72
2021/04/19 01:47:14;;;;;;;;;;;;;;;4.98;100.00;101399.81;5090850;28;20387;-72
2021/04/19 01:49:41;;;;;;;;;;;;;;;5.02;100.00;101398.72;5091329;28;19924;-72
2021/04/19 01:52:07;;;;;;;;;;;;;;;5.03;100.00;101400.47;5091246;28;20022;-71
2021/04/19 01:54:33;;;;;;;;;;;;;;;5.05;100.00;101397.69;5091475;28;19931;-72
2021/04/19 01:57:00;;;;;;;;;;;;;;;5.05;100.00;101408.44;5073258;28;19967;-71
2021/04/19 01:59:28;;;;;;;;;;;;;;;5.06;100.00;101394.91;5073885;28;19924;-72
2021/04/19 02:02:01;;;;;;;;;;;;;;;5.06;100.00;101394.91;5091055;28;19931;-72
2021/04/19 02:04:35;;;;;;;;;;;;;;;5.07;100.00;101393.97;5091400;28;19924;-72
2021/04/19 02:07:03;;;;;;;;;;;;;;;5.12;100.00;101388.41;5090863;28;20018;-72
2021/04/19 02:09:35;;;;;;;;;;;;;;;5.17;100.00;101395.31;5073319;28;20021;-71
2021/04/19 02:12:08;;;;;;;;;;;;;;;5.18;100.00;101394.34;5073004;28;19928;-72
2021/04/19 02:14:38;;;;;;;;;;;;;;;5.16;100.00;101390.84;5073302;28;19932;-72
2021/04/19 02:17:14;;;;;;;;;;;;;;;5.17;100.00;101392.59;5073063;28;19930;-72
2021/04/19 02:19:44;;;;;;;;;;;;;;;5.19;100.00;101396.09;5073094;28;19959;-72
2021/04/19 02:22:14;;;;;;;;;;;;;;;5.15;100.00;101386.41;5091136;28;19932;-72
2021/04/19 02:24:42;;;;;;;;;;;;;;;5.16;100.00;101380.09;5073005;28;19924;-72
2021/04/19 02:27:11;;;;;;;;;;;;;;;5.15;100.00;101374.78;5090851;28;20329;-72
2021/04/19 02:29:39;;;;;;;;;;;;;;;5.09;100.00;101377.75;5090641;28;19930;-72
2021/04/19 02:32:08;;;;;;;;;;;;;;;5.06;100.00;101380.59;5072842;28;19993;-72
2021/04/19 02:34:39;;;;;;;;;;;;;;;5.00;100.00;101382.63;5073373;28;19928;-72
2021/04/19 02:37:07;;;;;;;;;;;;;;;4.97;100.00;101388.19;5072640;28;19923;-72
2021/04/19 02:39:37;;;;;;;;;;;;;;;4.97;100.00;101389.97;5073266;28;20482;-71
2021/04/19 02:42:04;;;;;;;;;;;;;;;4.95;100.00;101391.88;5090601;28;20027;-72
2021/04/19 02:44:32;;;;;;;;;;;;;;;4.94;100.00;101385.59;5072740;28;20379;-72
2021/04/19 02:47:08;;;;;;;;;;;;;;;4.92;100.00;101394.69;5072631;28;19928;-71
2021/04/19 02:49:43;;;;;;;;;;;;;;;4.85;100.00;101386.03;5072840;28;19999;-72
2021/04/19 02:52:10;;;;;;;;;;;;;;;4.83;100.00;101393.31;5090822;28;19974;-72
2021/04/19 02:54:38;;;;;;;;;;;;;;;4.82;100.00;101392.47;5091076;28;19924;-72
2021/04/19 02:57:11;;;;;;;;;;;;;;;4.82;100.00;101391.56;5090534;28;19924;-72
2021/04/19 02:59:38;;;;;;;;;;;;;;;4.83;100.00;101388.81;5074072;28;19971;-72
2021/04/19 03:02:06;;;;;;;;;;;;;;;4.83;100.00;101394.19;5076528;28;19931;-72
2021/04/19 03:04:36;;;;;;;;;;;;;;;4.84;100.00;101398.63;5076333;28;19947;-72
2021/04/19 03:07:13;;;;;;;;;;;;;;;4.82;100.00;101396.94;5094154;28;19932;-72
2021/04/19 03:09:43;;;;;;;;;;;;;;;4.76;100.00;101399.94;5076593;28;19932;-72
2021/04/19 03:12:11;;;;;;;;;;;;;;;4.75;100.00;101401.75;5094076;28;19935;-72
2021/04/19 03:14:48;;;;;;;;;;;;;;;4.77;100.00;101399.88;5076587;28;20424;-72
2021/04/19 03:17:21;;;;;;;;;;;;;;;4.76;100.00;101387.34;5075851;28;19931;-72
2021/04/19 03:20:08;;;;;;;;;;;;;;;4.80;100.00;101388.09;5094312;28;19924;-74
2021/04/19 03:22:44;;;;;;;;;;;;;;;4.81;100.00;101377.25;5075829;28;19924;-72
2021/04/19 03:25:10;;;;;;;;;;;;;;;4.81;100.00;101379.94;5075832;28;19931;-72
2021/04/19 03:27:39;;;;;;;;;;;;;;;4.78;100.00;101374.69;5076122;28;19925;-72
2021/04/19 03:30:12;;;;;;;;;;;;;;;4.74;100.00;101377.59;5075997;28;20027;-72
2021/04/19 03:32:48;;;;;;;;;;;;;;;4.74;100.00;101385.69;5093991;28;19924;-72
2021/04/19 03:35:16;;;;;;;;;;;;;;;4.72;100.00;101391.13;5093648;28;19947;-72
2021/04/19 03:37:44;;;;;;;;;;;;;;;4.71;100.00;101394.75;5075928;28;19956;-72
2021/04/19 03:40:14;;;;;;;;;;;;;;;4.73;100.00;101392.88;5075736;28;20366;-72
2021/04/19 03:42:42;;;;;;;;;;;;;;;4.75;100.00;101390.97;5093351;28;19959;-72
2021/04/19 03:45:16;;;;;;;;;;;;;;;4.75;100.00;101390.13;5075338;28;19931;-72
2021/04/19 03:48:13;;;;;;;;;;;;;;;4.75;100.00;101390.97;5093390;28;19951;-72
2021/04/19 03:50:46;;;;;;;;;;;;;;;4.78;100.00;101392.66;5075797;28;19928;-72
2021/04/19 03:53:14;;;;;;;;;;;;;;;4.78;100.00;101388.13;5075421;28;20380;-72
2021/04/19 03:55:41;;;;;;;;;;;;;;;4.77;100.00;101393.59;5075445;28;19982;-72
2021/04/19 03:58:10;;;;;;;;;;;;;;;4.79;100.00;101392.59;5075240;28;19928;-70
2021/04/19 04:00:46;;;;;;;;;;;;;;;4.82;100.00;101397.84;5074964;28;21453;-71
2021/04/19 04:03:38;;;;;;;;;;;;;;;4.82;100.00;101381.72;5090443;28;20418;-73
2021/04/19 04:06:27;;;;;;;;;;;;;;;4.88;100.00;101391.28;5075162;28;19928;-70
2021/04/19 04:08:55;;;;;;;;;;;;;;;4.90;100.00;101386.69;5075326;28;19923;-72
2021/04/19 04:11:21;;;;;;;;;;;;;;;4.93;100.00;101383.88;5092616;28;19924;-70
2021/04/19 04:13:54;;;;;;;;;;;;;;;4.90;100.00;101377.75;5075223;28;19931;-70
2021/04/19 04:16:23;;;;;;;;;;;;;;;4.90;100.00;101372.38;5074571;28;19935;-70
2021/04/19 04:19:02;;;;;;;;;;;;;;;4.90;100.00;101384.00;5093208;28;19924;-70
2021/04/19 04:21:32;;;;;;;;;;;;;;;4.92;100.00;101382.13;5093032;28;20387;-72
2021/04/19 04:24:05;;;;;;;;;;;;;;;4.96;100.00;101382.88;5074606;28;19928;-72
2021/04/19 04:26:32;;;;;;;;;;;;;;;5.00;100.00;101381.78;5091943;28;19924;-71
2021/04/19 04:28:58;;;;;;;;;;;;;;;5.00;100.00;101385.34;5074449;28;20493;-72
2021/04/19 04:31:31;;;;;;;;;;;;;;;5.03;100.00;101381.63;5073864;28;19928;-71
2021/04/19 04:34:02;;;;;;;;;;;;;;;5.02;100.00;101375.38;5092655;28;19927;-71
2021/04/19 04:36:28;;;;;;;;;;;;;;;5.02;100.00;101377.19;5074131;28;20338;-71
2021/04/19 04:38:59;;;;;;;;;;;;;;;4.99;100.00;101380.03;5092815;28;19928;-71
2021/04/19 04:41:44;;;;;;;;;;;;;;;5.01;100.00;101384.38;5074028;28;19928;-71
2021/04/19 04:44:12;;;;;;;;;;;;;;;5.05;100.00;101389.63;5092087;28;19951;-71
2021/04/19 04:46:52;;;;;;;;;;;;;;;5.08;100.00;101384.09;5092032;28;20387;-71
2021/04/19 04:49:20;;;;;;;;;;;;;;;5.13;100.00;101388.31;5072047;28;20303;-71
2021/04/19 04:51:47;;;;;;;;;;;;;;;5.16;100.00;101380.09;5072145;28;19932;-71
2021/04/19 04:54:15;;;;;;;;;;;;;;;5.15;100.00;101382.84;5072037;28;19936;-71
2021/04/19 04:56:43;;;;;;;;;;;;;;;5.18;100.00;101382.69;5065820;28;19931;-71
2021/04/19 04:59:09;;;;;;;;;;;;;;;5.23;100.00;101375.28;5092025;28;19935;-71
2021/04/19 05:01:35;;;;;;;;;;;;;;;5.29;100.00;101384.88;5092129;28;19931;-71
2021/04/19 05:04:04;;;;;;;;;;;;;;;5.31;100.00;101389.25;5091615;28;19931;-71
2021/04/19 05:06:30;;;;;;;;;;;;;;;5.36;100.00;101389.03;5091203;28;19928;-71
2021/04/19 05:08:57;;;;;;;;;;;;;;;5.37;100.00;101382.66;5091730;28;19924;-71
2021/04/19 05:11:23;;;;;;;;;;;;;;;5.34;100.00;101382.84;5091820;28;19924;-71
2021/04/19 05:13:49;;;;;;;;;;;;;;;5.35;100.00;101389.97;5091283;28;20362;-72
2021/04/19 05:16:23;;;;;;;;;;;;;;;5.34;100.00;101386.41;5090305;28;20396;-71
2021/04/19 05:18:49;;;;;;;;;;;;;;;5.35;100.00;101396.22;5091708;28;20018;-71
2021/04/19 05:21:16;;;;;;;;;;;;;;;5.41;100.00;101395.06;5091305;28;19931;-72
2021/04/19 05:23:42;;;;;;;;;;;;;;;5.45;100.00;101393.97;5090495;28;20019;-72
2021/04/19 05:26:07;;;;;;;;;;;;;;;5.46;100.00;101403.75;5091398;28;19963;-71
2021/04/19 05:28:34;;;;;;;;;;;;;;;5.47;100.00;101399.28;5090994;28;19924;-71
2021/04/19 05:31:00;;;;;;;;;;;;;;;5.48;100.00;101406.41;5091242;28;19928;-71
2021/04/19 05:33:25;;;;;;;;;;;;;;;5.46;100.00;101401.06;5091629;28;19924;-72
2021/04/19 05:35:51;;;;;;;;;;;;;;;5.50;100.00;101401.81;5073385;28;19924;-71
2021/04/19 05:38:18;;;;;;;;;;;;;;;5.54;100.00;101403.41;5091316;28;19924;-71
2021/04/19 05:40:44;;;;;;;;;;;;;;;5.57;100.00;101405.06;5090574;28;19924;-71
2021/04/19 05:43:10;;;;;;;;;;;;;;;5.59;100.00;101405.88;5072646;28;19939;-70
2021/04/19 05:45:37;;;;;;;;;;;;;;;5.60;100.00;101415.69;5090940;28;19928;-71
2021/04/19 05:48:04;;;;;;;;;;;;;;;5.59;100.00;101409.44;5088900;28;19969;-71
2021/04/19 05:50:29;;;;;;;;;;;;;;;5.66;100.00;101404.63;5084152;28;20295;-71
2021/04/19 05:52:57;;;;;;;;;;;;;;;5.74;100.00;101402.41;5090729;28;19981;-71
2021/04/19 05:55:25;;;;;;;;;;;;;;;5.86;100.00;101398.22;5090655;28;19931;-71
2021/04/19 05:57:53;;;;;;;;;;;;;;;5.93;100.00;101404.16;5089868;28;19925;-71
2021/04/19 06:00:20;;;;;;;;;;;;;;;6.00;100.00;101411.03;5073470;28;19928;-71
2021/04/19 06:02:51;;;;;;;;;;;;;;;6.13;100.00;101398.69;5072737;28;19932;-71
2021/04/19 06:05:20;;;;;;;;;;;;;;;6.22;100.00;101399.16;5090798;28;19928;-71
2021/04/19 06:07:47;;;;;;;;;;;;;;;6.33;100.00;101404.84;5090377;28;19931;-71
2021/04/19 06:10:43;;;;;;;;;;;;;;;6.43;100.00;101403.41;5090612;28;19950;-71
2021/04/19 06:13:23;;;;;;;;;;;;;;;6.50;100.00;101402.09;5067196;28;19924;-71
2021/04/19 06:15:51;;;;;;;;;;;;;;;6.57;100.00;101401.78;5072520;28;19931;-71
2021/04/19 06:18:19;;;;;;;;;;;;;;;6.64;100.00;101411.28;5090418;28;19928;-71
2021/04/19 06:20:47;;;;;;;;;;;;;;;6.60;100.00;101410.59;5090006;28;20360;-71
2021/04/19 06:23:13;;;;;;;;;;;;;;;6.61;100.00;101404.22;5072824;28;19935;-71
2021/04/19 06:25:39;;;;;;;;;;;;;;;6.59;100.00;101405.25;5090339;28;19924;-70
2021/04/19 06:28:06;;;;;;;;;;;;;;;6.65;100.00;101403.09;5091672;28;19928;-71
2021/04/19 06:30:33;;;;;;;;;;;;;;;6.75;100.00;101399.91;5091032;28;19925;-70
2021/04/19 06:32:59;;;;;;;;;;;;;;;6.90;100.00;101403.63;5091803;28;19935;-70
2021/04/19 06:35:25;;;;;;;;;;;;;;;7.00;100.00;101394.03;5095241;28;19964;-71
2021/04/19 06:37:54;;;;;;;;;;;;;;;7.13;100.00;101394.22;5096100;28;19924;-70
2021/04/19 06:40:20;;;;;;;;;;;;;;;7.19;100.00;101399.31;5100543;28;19936;-70
2021/04/19 06:42:46;;;;;;;;;;;;;;;7.29;100.00;101407.75;5098173;28;19982;-71
2021/04/19 06:45:13;;;;;;;;;;;;;;;7.36;100.00;101395.63;5096332;28;19928;-70
2021/04/19 06:47:40;;;;;;;;;;;;;;;7.40;100.00;101396.31;5095052;28;19951;-70
2021/04/19 06:50:06;;;;;;;;;;;;;;;7.40;100.00;101390.91;5094450;28;20336;-71
2021/04/19 06:52:32;;;;;;;;;;;;;;;7.40;100.00;101390.91;5092611;28;19931;-70
2021/04/19 06:54:58;;;;;;;;;;;;;;;7.47;100.00;101397.69;5075528;28;20022;-71
2021/04/19 06:57:25;;;;;;;;;;;;;;;7.45;100.00;101400.50;5093898;28;19990;-71
2021/04/19 06:59:52;;;;;;;;;;;;;;;7.42;100.00;101402.53;5093991;28;19924;-71
2021/04/19 07:02:20;;;;;;;;;;;;;;;7.36;100.00;101395.63;5094279;28;19989;-71
2021/04/19 07:04:49;;;;;;;;;;;;;;;7.32;100.00;101405.75;5092907;28;19924;-71
2021/04/19 07:07:18;;;;;;;;;;;;;;;7.33;100.00;101395.81;5101728;28;19932;-73
2021/04/19 07:09:45;;;;;;;;;;;;;;;7.25;100.00;101382.72;5080369;28;19924;-71
2021/04/19 07:12:17;;;;;;;;;;;;;;;7.28;100.00;101385.28;5103973;28;19935;-71
2021/04/19 07:14:45;;;;;;;;;;;;;;;7.36;100.00;101392.91;5101640;28;20225;-71
2021/04/19 07:17:11;;;;;;;;;;;;;;;7.62;100.00;101377.06;5093424;28;19928;-71
2021/04/19 07:19:38;;;;;;;;;;;;;;;7.97;100.00;101374.09;5093058;28;19931;-71
2021/04/19 07:22:05;;;;;;;;;;;;;;;8.54;100.00;101379.63;5109758;27;19981;-71
2021/04/19 07:24:30;;;;;;;;;;;;;;;8.74;100.00;101369.41;5093519;28;19928;-71
2021/04/19 07:26:56;;;;;;;;;;;;;;;8.87;100.00;101370.34;5093729;28;19924;-71
2021/04/19 07:29:22;;;;;;;;;;;;;;;8.92;100.00;101367.34;5093033;28;20000;-71
2021/04/19 07:31:49;;;;;;;;;;;;;;;9.01;100.00;101368.59;5093521;28;20406;-71
2021/04/19 07:34:19;;;;;;;;;;;;;;;9.02;100.00;101356.81;5075750;28;19928;-71
2021/04/19 07:36:50;;;;;;;;;;;;;;;8.99;100.00;101351.56;5091507;28;19924;-71
2021/04/19 07:39:17;;;;;;;;;;;;;;;9.05;100.00;101357.47;5093274;28;19976;-71
2021/04/19 07:41:47;;;;;;;;;;;;;;;9.10;100.00;101357.19;5093511;28;19924;-71
2021/04/19 07:44:31;;;;;;;;;;;;;;;9.00;100.00;101359.59;5092834;28;19928;-71
2021/04/19 07:47:16;;;;;;;;;;;;;;;9.07;100.00;101361.91;5091934;28;20419;-71
2021/04/19 07:49:54;;;;;;;;;;;;;;;8.84;100.00;101370.53;5092912;28;20027;-70
2021/04/19 07:52:20;;;;;;;;;;;;;;;8.76;100.00;101377.41;5074811;28;19956;-71
2021/04/19 07:54:47;;;;;;;;;;;;;;;8.61;100.00;101384.66;5093341;28;19971;-71
2021/04/19 07:57:13;;;;;;;;;;;;;;;8.51;100.00;101384.34;5091854;28;19928;-72
2021/04/19 07:59:39;;;;;;;;;;;;;;;8.49;100.00;101384.44;5093294;28;19924;-71
2021/04/19 08:02:05;;;;;;;;;;;;;;;8.61;100.00;101376.56;5092384;28;19927;-71
2021/04/19 08:04:32;;;;;;;;;;;;;;;8.70;100.00;101379.53;5092961;28;19928;-71
2021/04/19 08:06:57;;;;;;;;;;;;;;;8.66;100.00;101367.16;5092459;28;20332;-71
2021/04/19 08:09:25;;;;;;;;;;;;;;;8.78;100.00;101380.88;5092182;28;19931;-71
2021/04/19 08:11:57;;;;;;;;;;;;;;;8.78;100.00;101373.66;5092446;28;19928;-71
2021/04/19 08:14:22;;;;;;;;;;;;;;;8.80;100.00;101378.97;5092648;28;19928;-72
2021/04/19 08:17:03;;;;;;;;;;;;;;;8.94;100.00;101373.53;5091909;28;19924;-71
2021/04/19 08:19:32;;;;;;;;;;;;;;;9.02;100.00;101375.75;5074046;28;19924;-71
2021/04/19 08:22:10;;;;;;;;;;;;;;;9.23;100.00;101368.06;5089766;28;20468;-71
2021/04/19 08:24:37;;;;;;;;;;;;;;;9.50;100.00;101365.38;5092128;28;19924;-71
2021/04/19 08:27:03;;;;;;;;;;;;;;;9.85;100.00;101355.84;5092349;28;19971;-71
2021/04/19 08:29:36;;;;;;;;;;;;;;;10.36;100.00;101355.09;5066512;28;19924;-71
2021/04/19 08:32:03;;;;;;;;;;;;;;;11.04;100.00;101350.22;5074657;28;19924;-71
2021/04/19 08:34:29;;;;;;;;;;;;;;;11.75;100.00;101335.94;5092088;28;19927;-71
2021/04/19 08:36:55;;;;;;;;;;;;;;;12.39;100.00;101336.38;5087145;28;19969;-72
2021/04/19 08:39:21;;;;;;;;;;;;;;;12.88;100.00;101328.84;5091239;28;20015;-71
2021/04/19 08:41:49;;;;;;;;;;;;;;;12.71;100.00;101315.72;5091384;28;19925;-71
2021/04/19 08:44:15;;;;;;;;;;;;;;;12.17;100.00;101318.16;5089919;28;20003;-72
2021/04/19 08:46:41;;;;;;;;;;;;;;;11.64;100.00;101309.56;5090662;28;20030;-71
2021/04/19 08:49:07;;;;;;;;;;;;;;;11.62;100.00;101306.06;5091445;28;20394;-71
2021/04/19 08:51:33;;;;;;;;;;;;;;;11.84;100.00;101305.31;5088914;28;19969;-71
2021/04/19 08:53:59;;;;;;;;;;;;;;;12.14;100.00;101307.50;5091494;28;20387;-71
2021/04/19 08:56:25;;;;;;;;;;;;;;;12.37;100.00;101304.81;5091598;28;19935;-71
2021/04/19 08:58:51;;;;;;;;;;;;;;;12.28;100.00;101300.09;5073712;28;19973;-71
2021/04/19 09:01:17;;;;;;;;;;;;;;;12.13;100.00;101294.91;5091254;28;19924;-71
2021/04/19 09:03:43;;;;;;;;;;;;;;;12.20;100.00;101301.56;5091630;28;20033;-71
2021/04/19 09:06:14;;;;;;;;;;;;;;;12.72;100.00;101301.97;5090106;28;19993;-71
2021/04/19 09:08:40;;;;;;;;;;;;;;;13.51;100.00;101308.28;5091868;28;20472;-71
2021/04/19 09:11:06;;;;;;;;;;;;;;;14.39;100.00;101308.91;5091408;28;19928;-71
2021/04/19 09:13:34;;;;;;;;;;;;;;;15.37;100.00;101299.19;5090692;28;19924;-72
2021/04/19 09:16:17;;;;;;;;;;;;;;;15.73;100.00;101298.63;5090663;28;20108;-72
2021/04/19 09:18:43;;;;;;;;;;;;;;;15.96;100.00;101298.38;5089835;28;19924;-71
2021/04/19 09:21:09;;;;;;;;;;;;;;;16.21;100.00;101292.25;5091239;28;20332;-72
2021/04/19 09:23:35;;;;;;;;;;;;;;;16.41;100.00;101292.22;5091424;28;19972;-71
2021/04/19 09:26:02;;;;;;;;;;;;;;;17.15;100.00;101289.56;5090413;28;19924;-71
2021/04/19 09:28:55;;;;;;;;;;;;;;;17.22;100.00;101275.09;5091269;28;19956;-72
2021/04/19 09:31:35;;;;;;;;;;;;;;;16.97;100.00;101270.31;5072316;28;20031;-72
2021/04/19 09:34:13;;;;;;;;;;;;;;;17.05;100.00;101271.31;5089433;28;19924;-72
2021/04/19 09:36:52;;;;;;;;;;;;;;;17.06;100.00;101264.81;5091052;28;19935;-71
2021/04/19 09:39:32;;;;;;;;;;;;;;;17.55;100.00;101269.91;5091047;28;19962;-71
2021/04/19 09:41:58;;;;;;;;;;;;;;;17.75;100.00;101264.25;5089810;28;20395;-71
2021/04/19 09:44:27;;;;;;;;;;;;;;;17.93;100.00;101260.66;5091067;28;19931;-72
2021/04/19 09:46:53;;;;;;;;;;;;;;;18.00;100.00;101257.09;5090859;28;19931;-72
2021/04/19 09:49:22;;;;;;;;;;;;;;;17.33;100.00;101254.78;5090861;28;19943;-72
2021/04/19 09:51:48;;;;;;;;;;;;;;;18.17;100.00;101255.34;5089113;28;20395;-72
2021/04/19 09:54:15;;;;;;;;;;;;;;;17.93;100.00;101249.66;5087193;28;19935;-72
2021/04/19 09:56:41;;;;;;;;;;;;;;;18.10;100.00;101250.66;5086243;28;19982;-72
2021/04/19 09:59:08;;;;;;;;;;;;;;;17.74;100.00;101251.53;5090632;28;19924;-72
2021/04/19 10:01:35;;;;;;;;;;;;;;;18.00;100.00;101242.53;5090779;28;19924;-72
2021/04/19 10:04:01;;;;;;;;;;;;;;;17.82;100.00;101243.38;5071604;28;19959;-72
2021/04/19 10:06:36;;;;;;;;;;;;;;;18.13;100.00;101245.72;5090733;28;20287;-72
2021/04/19 10:09:02;;;;;;;;;;;;;;;17.33;100.00;101243.81;5090298;28;19924;-72
2021/04/19 10:11:30;;;;;;;;;;;;;;;17.34;100.00;101236.44;5090217;28;19931;-72
2021/04/19 10:13:56;;;;;;;;;;;;;;;17.66;100.00;101230.38;5090747;28;19924;-72
2021/04/19 10:16:22;;;;;;;;;;;;;;;17.26;100.00;101242.69;5090160;28;19928;-72
2021/04/19 10:18:49;;;;;;;;;;;;;;;17.32;100.00;101235.75;5072885;28;20342;-72
2021/04/19 10:21:25;;;;;;;;;;;;;;;17.57;100.00;101229.47;5090176;28;20056;-72
2021/04/19 10:23:52;;;;;;;;;;;;;;;18.37;100.00;101235.84;5090088;28;20359;-72
2021/04/19 10:26:18;;;;;;;;;;;;;;;19.05;100.00;101223.97;5090127;28;19928;-72
2021/04/19 10:28:45;;;;;;;;;;;;;;;18.12;100.00;101233.00;5090801;28;19924;-71
2021/04/19 10:31:13;;;;;;;;;;;;;;;18.24;100.00;101236.31;5072911;28;20041;-71
2021/04/19 10:33:39;;;;;;;;;;;;;;;18.31;100.00;101231.03;5090161;28;19924;-72
2021/04/19 10:36:26;;;;;;;;;;;;;;;18.18;100.00;101228.72;5089819;28;19935;-73
2021/04/19 10:38:54;;;;;;;;;;;;;;;17.56;100.00;101222.25;5086792;28;19928;-72
2021/04/19 10:41:28;;;;;;;;;;;;;;;17.51;100.00;101221.00;5071948;28;19932;-72
2021/04/19 10:43:54;;;;;;;;;;;;;;;17.50;100.00;101222.00;5089344;28;19924;-72
2021/04/19 10:46:24;;;;;;;;;;;;;;;17.34;100.00;101211.75;5087475;28;19931;-72
2021/04/19 10:48:50;;;;;;;;;;;;;;;17.04;100.00;101216.59;5071630;28;19931;-73
2021/04/19 10:51:17;;;;;;;;;;;;;;;16.87;100.00;101210.03;5086217;28;20019;-72
2021/04/19 10:53:43;;;;;;;;;;;;;;;16.12;100.00;101210.97;5083788;28;19924;-72
2021/04/19 10:56:10;;;;;;;;;;;;;;;15.69;100.00;101209.63;5089484;28;19966;-72
2021/04/19 10:58:36;;;;;;;;;;;;;;;15.41;100.00;101209.50;5090266;28;19924;-72
2021/04/19 11:01:02;;;;;;;;;;;;;;;15.52;100.00;101208.50;5088573;28;20477;-72
2021/04/19 11:03:35;;;;;;;;;;;;;;;15.48;100.00;101213.38;5088957;28;19978;-72
2021/04/19 11:06:01;;;;;;;;;;;;;;;15.55;100.00;101211.81;5089918;28;19934;-72
2021/04/19 11:08:42;;;;;;;;;;;;;;;15.83;100.00;101211.94;5088823;28;19971;-72
2021/04/19 11:11:20;;;;;;;;;;;;;;;15.62;100.00;101203.88;5089131;28;19928;-71
2021/04/19 11:13:46;;;;;;;;;;;;;;;15.65;100.00;101202.72;5089680;28;19924;-72
2021/04/19 11:16:18;;;;;;;;;;;;;;;15.66;100.00;101198.94;5089593;28;19931;-72
2021/04/19 11:18:44;;;;;;;;;;;;;;;16.01;100.00;101205.69;5089688;28;19947;-72
2021/04/19 11:21:10;;;;;;;;;;;;;;;16.14;100.00;101202.63;5091918;28;19935;-72
2021/04/19 11:23:36;;;;;;;;;;;;;;;16.84;100.00;101193.91;5093076;28;19924;-72
2021/04/19 11:26:03;;;;;;;;;;;;;;;17.72;100.00;101198.69;5078523;28;19931;-72
2021/04/19 11:28:31;;;;;;;;;;;;;;;18.35;100.00;101183.81;5092313;28;19970;-72
2021/04/19 11:30:58;;;;;;;;;;;;;;;18.79;100.00;101180.03;5093206;28;20311;-72
2021/04/19 11:33:25;;;;;;;;;;;;;;;18.70;100.00;101181.88;5092821;28;20343;-71
2021/04/19 11:35:52;;;;;;;;;;;;;;;18.97;100.00;101179.06;5073711;28;19981;-71
2021/04/19 11:38:18;;;;;;;;;;;;;;;19.27;100.00;101177.56;5092651;28;19924;-72
2021/04/19 11:40:46;;;;;;;;;;;;;;;18.93;100.00;101174.94;5092525;28;20482;-72
2021/04/19 11:43:16;;;;;;;;;;;;;;;19.02;100.00;101177.53;5074329;28;19989;-72
2021/04/19 11:45:43;;;;;;;;;;;;;;;19.58;99.43;101177.72;5092353;28;19924;-72
2021/04/19 11:48:10;;;;;;;;;;;;;;;19.72;97.99;101176.19;5091309;28;19924;-71
2021/04/19 11:50:37;;;;;;;;;;;;;;;19.26;98.00;101169.50;5093191;28;19930;-70
2021/04/19 11:53:03;;;;;;;;;;;;;;;20.39;100.00;101165.84;5091563;28;19928;-70
2021/04/19 11:55:29;;;;;;;;;;;;;;;20.40;98.11;101162.94;5092328;28;19924;-71
2021/04/19 11:57:54;;;;;;;;;;;;;;;20.15;95.38;101164.03;5092963;28;20307;-70
2021/04/19 12:00:21;;;;;;;;;;;;;;;20.43;94.62;101152.56;5092295;28;19928;-69
2021/04/19 12:02:48;;;;;;;;;;;;;;;20.83;92.46;101151.53;5088004;28;19924;-71
2021/04/19 12:05:14;;;;;;;;;;;;;;;21.37;87.70;101150.59;5091940;28;19943;-71
2021/04/19 12:07:40;;;;;;;;;;;;;;;20.68;87.34;101159.66;5074922;28;19924;-70
2021/04/19 12:10:07;;;;;;;;;;;;;;;20.54;80.78;101153.03;5092025;28;20319;-70
2021/04/19 12:12:33;;;;;;;;;;;;;;;21.15;91.04;101145.97;5091918;28;19935;-70
2021/04/19 12:14:59;;;;;;;;;;;;;;;21.13;79.44;101140.63;5092250;28;19924;-69
2021/04/19 12:17:25;;;;;;;;;;;;;;;21.79;81.53;101156.63;5092149;28;19958;-72
2021/04/19 12:19:51;;;;;;;;;;;;;;;22.72;74.43;101143.25;5092303;28;20414;-72
2021/04/19 12:22:17;;;;;;;;;;;;;;;22.73;57.89;101142.22;5074438;28;20394;-71
2021/04/19 12:24:43;;;;;;;;;;;;;;;23.67;51.36;101142.28;5092114;28;19931;-71
2021/04/19 12:27:09;;;;;;;;;;;;;;;24.07;52.84;101139.81;5091797;28;19974;-71
2021/04/19 12:29:35;;;;;;;;;;;;;;;23.96;52.26;101134.81;5092112;28;19928;-73
2021/04/19 12:32:01;;;;;;;;;;;;;;;23.66;51.70;101135.88;5091100;28;19935;-73
2021/04/19 12:34:26;;;;;;;;;;;;;;;23.11;49.40;101131.97;5076255;28;20445;-74
2021/04/19 12:36:54;;;;;;;;;;;;;;;23.32;49.13;101120.06;5092410;28;19924;-73
2021/04/19 12:39:20;;;;;;;;;;;;;;;22.75;58.17;101125.41;5072924;28;19935;-73
2021/04/19 12:41:47;;;;;;;;;;;;;;;23.29;53.34;101123.19;5073758;28;19924;-73